createdAt,value
2019-04-22T00:00:29.219Z,6.70
2019-04-22T00:02:59.299Z,6.30
2019-04-22T00:05:42.864Z,6.70
2019-04-22T00:08:20.028Z,5.40
2019-04-22T00:10:50.273Z,6.27
2019-04-22T00:13:18.145Z,6.00
2019-04-22T00:15:41.725Z,6.30
2019-04-22T00:18:28.260Z,5.63
2019-04-22T00:20:50.157Z,5.50
2019-04-22T00:23:15.554Z,5.40
2019-04-22T00:25:48.352Z,4.90
2019-04-22T00:28:19.579Z,4.50
2019-04-22T00:30:48.506Z,5.87
2019-04-22T00:33:18.306Z,5.20
2019-04-22T00:35:49.344Z,5.10
2019-04-22T00:40:45.028Z,5.20
2019-04-22T00:43:19.618Z,4.70
2019-04-22T00:45:44.775Z,4.80
2019-04-22T00:48:20.674Z,5.27
2019-04-22T00:50:46.351Z,5.37
2019-04-22T00:53:16.468Z,5.40
2019-04-22T00:58:37.942Z,4.70
2019-04-22T01:01:09.066Z,5.27
2019-04-22T01:03:44.207Z,5.43
2019-04-22T01:06:12.368Z,5.10
2019-04-22T01:08:43.526Z,5.50
2019-04-22T01:11:13.459Z,4.70
2019-04-22T01:13:30.445Z,4.77
2019-04-22T01:16:10.932Z,5.77
2019-04-22T01:18:37.969Z,4.63
2019-04-22T01:23:34.498Z,5.10
2019-04-22T01:26:00.797Z,4.90
2019-04-22T01:28:27.596Z,5.23
2019-04-22T01:30:51.433Z,5.50
2019-04-22T01:33:19.224Z,4.87
2019-04-22T01:36:01.458Z,5.10
2019-04-22T01:38:31.415Z,4.57
2019-04-22T01:41:12.382Z,4.73
2019-04-22T01:43:40.911Z,4.20
2019-04-22T01:46:12.678Z,5.20
2019-04-22T01:48:36.113Z,3.93
2019-04-22T01:51:03.397Z,5.07
2019-04-22T01:53:36.047Z,5.70
2019-04-22T01:56:06.132Z,5.00
2019-04-22T01:58:31.119Z,4.60
2019-04-22T02:01:00.223Z,4.67
2019-04-22T02:03:33.223Z,5.40
2019-04-22T02:05:58.807Z,5.07
2019-04-22T02:08:42.701Z,4.70
2019-04-22T02:11:00.960Z,4.93
2019-04-22T02:13:30.771Z,5.03
2019-04-22T02:15:58.800Z,4.50
2019-04-22T02:18:31.839Z,4.50
2019-04-22T02:20:55.289Z,4.83
2019-04-22T02:26:12.048Z,4.63
2019-04-22T02:28:36.935Z,5.07
2019-04-22T02:31:25.957Z,4.67
2019-04-22T02:34:01.851Z,4.60
2019-04-22T02:36:19.154Z,4.83
2019-04-22T02:38:51.694Z,4.20
2019-04-22T02:43:46.641Z,4.60
2019-04-22T02:54:12.071Z,5.40
2019-04-22T02:56:12.128Z,4.47
2019-04-22T03:01:06.118Z,4.70
2019-04-22T03:03:41.830Z,4.60
2019-04-22T03:08:38.038Z,5.27
2019-04-22T03:13:40.376Z,5.03
2019-04-22T03:16:17.207Z,4.30
2019-04-22T03:20:58.540Z,4.20
2019-04-22T03:23:38.361Z,4.40
2019-04-22T03:28:30.868Z,4.07
2019-04-22T03:31:46.382Z,3.67
2019-04-22T03:34:48.011Z,5.17
2019-04-22T03:39:20.289Z,4.33
2019-04-22T03:41:39.325Z,4.53
2019-04-22T03:44:10.194Z,4.60
2019-04-22T03:46:21.187Z,4.80
2019-04-22T03:49:07.229Z,4.27
2019-04-22T03:54:03.264Z,4.13
2019-04-22T03:56:58.381Z,4.60
2019-04-22T03:58:58.636Z,4.90
2019-04-22T04:01:30.182Z,4.73
2019-04-22T04:03:55.290Z,4.30
2019-04-22T04:06:24.165Z,4.90
2019-04-22T04:08:38.822Z,4.70
2019-04-22T04:11:25.184Z,5.40
2019-04-22T04:13:57.909Z,4.37
2019-04-22T04:16:21.705Z,4.83
2019-04-22T04:19:08.230Z,4.60
2019-04-22T04:21:26.656Z,5.40
2019-04-22T04:26:17.002Z,5.30
2019-04-22T04:36:14.460Z,5.43
2019-04-22T04:41:17.253Z,4.87
2019-04-22T04:43:56.373Z,5.30
2019-04-22T04:46:14.156Z,4.97
2019-04-22T04:51:21.506Z,5.13
2019-04-22T04:56:22.796Z,4.37
2019-04-22T04:59:05.267Z,4.60
2019-04-22T05:01:20.977Z,5.40
2019-04-22T05:03:49.776Z,5.20
2019-04-22T05:06:12.620Z,4.07
2019-04-22T05:13:49.691Z,5.17
2019-04-22T05:16:27.949Z,4.77
2019-04-22T05:18:37.410Z,6.00
2019-04-22T05:21:14.768Z,4.87
2019-04-22T05:23:38.726Z,5.80
2019-04-22T05:26:07.377Z,6.60
2019-04-22T05:28:30.264Z,6.80
2019-04-22T05:31:06.566Z,5.73
2019-04-22T05:33:30.352Z,5.80
2019-04-22T05:36:01.501Z,6.13
2019-04-22T05:38:38.376Z,5.87
2019-04-22T05:40:58.953Z,5.93
2019-04-22T05:43:27.462Z,5.63
2019-04-22T05:45:53.752Z,5.70
2019-04-22T05:48:30.497Z,5.70
2019-04-22T05:50:59.310Z,5.80
2019-04-22T05:53:21.252Z,5.93
2019-04-22T05:55:55.562Z,4.77
2019-04-22T05:58:24.367Z,5.77
2019-04-22T06:03:39.729Z,6.13
2019-04-22T06:06:06.388Z,5.30
2019-04-22T06:08:29.538Z,4.57
2019-04-22T06:11:14.857Z,6.47
2019-04-22T06:13:27.659Z,6.17
2019-04-22T06:16:03.654Z,6.07
2019-04-22T06:18:34.536Z,5.40
2019-04-22T06:21:09.378Z,5.87
2019-04-22T06:23:44.411Z,5.23
2019-04-22T06:26:14.693Z,5.23
2019-04-22T06:31:02.442Z,5.80
2019-04-22T06:33:34.598Z,6.10
2019-04-22T06:36:06.046Z,5.47
2019-04-22T06:38:37.681Z,5.17
2019-04-22T06:41:04.257Z,6.30
2019-04-22T06:43:33.797Z,5.20
2019-04-22T06:46:02.393Z,5.73
2019-04-22T06:50:56.533Z,6.13
2019-04-22T06:53:29.775Z,5.77
2019-04-22T06:56:00.268Z,6.57
2019-04-22T06:58:21.789Z,6.10
2019-04-22T07:00:52.050Z,5.93
2019-04-22T07:05:53.874Z,5.83
2019-04-22T07:08:59.292Z,6.40
2019-04-22T07:10:50.642Z,5.93
2019-04-22T07:13:23.614Z,6.77
2019-04-22T07:18:24.454Z,6.77
2019-04-22T07:20:59.904Z,5.90
2019-04-22T07:25:53.397Z,7.53
2019-04-22T07:28:20.189Z,7.27
2019-04-22T07:30:56.052Z,7.27
2019-04-22T07:38:23.969Z,6.40
2019-04-22T07:46:00.352Z,7.27
2019-04-22T07:48:26.590Z,7.27
2019-04-22T07:51:02.562Z,6.93
2019-04-22T07:53:10.087Z,7.33
2019-04-22T07:55:45.344Z,7.60
2019-04-22T07:58:18.457Z,6.70
2019-04-22T08:01:02.012Z,7.30
2019-04-22T08:03:18.525Z,7.50
2019-04-22T08:05:53.492Z,7.13
2019-04-22T08:08:19.681Z,7.53
2019-04-22T08:13:11.918Z,6.80
2019-04-22T08:15:48.540Z,6.40
2019-04-22T08:18:28.299Z,7.03
2019-04-22T08:20:42.777Z,6.47
2019-04-22T08:25:42.924Z,8.90
2019-04-22T08:33:15.488Z,7.43
2019-04-22T08:38:11.573Z,7.20
2019-04-22T08:40:50.237Z,6.93
2019-04-22T08:43:20.932Z,7.27
2019-04-22T08:45:46.061Z,7.83
2019-04-22T08:48:07.721Z,6.90
2019-04-22T08:50:38.901Z,8.10
2019-04-22T08:53:14.307Z,6.97
2019-04-22T08:55:52.175Z,8.13
2019-04-22T08:58:21.337Z,8.53
2019-04-22T09:00:44.621Z,7.40
2019-04-22T09:05:48.402Z,8.00
2019-04-22T09:10:37.969Z,8.23
2019-04-22T09:15:34.537Z,6.67
2019-04-22T09:18:08.110Z,7.40
2019-04-22T09:20:40.751Z,8.20
2019-04-22T09:23:07.699Z,7.30
2019-04-22T09:25:34.310Z,7.43
2019-04-22T09:28:08.175Z,6.67
2019-04-22T09:30:40.137Z,7.67
2019-04-22T09:33:12.027Z,7.20
2019-04-22T09:35:44.063Z,7.67
2019-04-22T09:38:18.874Z,7.10
2019-04-22T09:40:34.600Z,7.30
2019-04-22T09:43:04.932Z,7.63
2019-04-22T09:45:37.816Z,6.73
2019-04-22T09:48:08.434Z,7.13
2019-04-22T09:50:37.558Z,5.73
2019-04-22T09:53:02.472Z,6.83
2019-04-22T09:55:29.806Z,7.13
2019-04-22T09:58:03.139Z,6.43
2019-04-22T10:00:37.549Z,6.50
2019-04-22T10:03:06.855Z,6.07
2019-04-22T10:05:35.750Z,5.70
2019-04-22T10:08:14.573Z,4.77
2019-04-22T10:10:41.772Z,5.37
2019-04-22T10:13:04.730Z,5.50
2019-04-22T10:15:33.779Z,5.03
2019-04-22T10:18:02.896Z,6.00
2019-04-22T10:20:31.189Z,6.10
2019-04-22T10:23:05.495Z,5.80
2019-04-22T10:25:35.174Z,5.60
2019-04-22T10:28:10.435Z,5.77
2019-04-22T10:30:38.371Z,5.87
2019-04-22T10:33:00.815Z,5.47
2019-04-22T10:35:15.580Z,5.90
2019-04-22T10:37:40.578Z,5.60
2019-04-22T10:40:11.565Z,5.60
2019-04-22T10:42:43.424Z,5.10
2019-04-22T10:45:12.391Z,5.83
2019-04-22T10:47:40.354Z,5.43
2019-04-22T10:50:12.185Z,5.77
2019-04-22T10:52:41.323Z,5.30
2019-04-22T10:55:09.814Z,4.53
2019-04-22T10:57:38.897Z,4.17
2019-04-22T11:00:06.937Z,4.77
2019-04-22T11:02:35.147Z,5.40
2019-04-22T11:05:04.060Z,4.00
2019-04-22T11:07:39.925Z,4.83
2019-04-22T11:10:21.783Z,4.83
2019-04-22T11:12:35.278Z,4.30
2019-04-22T11:15:00.426Z,4.80
2019-04-22T11:17:29.315Z,3.90
2019-04-22T11:19:57.541Z,4.70
2019-04-22T11:22:29.971Z,4.80
2019-04-22T11:24:57.967Z,4.30
2019-04-22T11:27:25.348Z,4.67
2019-04-22T11:29:53.261Z,4.07
2019-04-22T11:32:20.722Z,3.60
2019-04-22T11:34:49.044Z,4.40
2019-04-22T11:37:18.493Z,4.70
2019-04-22T11:39:48.131Z,4.27
2019-04-22T11:42:16.342Z,3.97
2019-04-22T11:44:45.324Z,4.67
2019-04-22T11:47:14.999Z,4.33
2019-04-22T11:49:43.903Z,4.27
2019-04-22T11:52:14.696Z,4.27
2019-04-22T11:54:42.969Z,4.23
2019-04-22T11:57:10.851Z,4.20
2019-04-22T11:59:38.569Z,4.10
2019-04-22T12:02:06.806Z,4.30
2019-04-22T12:04:35.882Z,3.77
2019-04-22T12:07:04.266Z,3.80
2019-04-22T12:09:33.488Z,3.23
2019-04-22T12:12:01.348Z,3.93
2019-04-22T12:14:30.000Z,3.77
2019-04-22T12:16:57.673Z,3.77
2019-04-22T12:19:25.359Z,4.30
2019-04-22T12:21:53.241Z,3.47
2019-04-22T12:24:21.566Z,4.03
2019-04-22T12:26:50.582Z,3.77
2019-04-22T12:29:18.255Z,3.57
2019-04-22T12:31:45.609Z,3.63
2019-04-22T12:34:13.335Z,10.67
2019-04-22T12:36:42.630Z,3.70
2019-04-22T12:39:11.570Z,3.40
2019-04-22T12:41:40.162Z,3.33
2019-04-22T12:44:09.262Z,3.30
2019-04-22T12:46:38.334Z,2.80
2019-04-22T12:49:07.872Z,3.90
2019-04-22T12:51:36.734Z,2.70
2019-04-22T12:54:04.495Z,3.10
2019-04-22T12:56:33.220Z,2.97
2019-04-22T12:59:01.371Z,2.90
2019-04-22T13:01:29.221Z,3.33
2019-04-22T13:04:02.032Z,3.17
2019-04-22T13:06:26.218Z,3.63
2019-04-22T13:08:54.635Z,3.20
2019-04-22T13:11:28.168Z,3.10
2019-04-22T13:13:51.821Z,3.50
2019-04-22T13:16:20.604Z,3.10
2019-04-22T13:18:55.636Z,3.10
2019-04-22T13:21:18.589Z,3.37
2019-04-22T13:23:46.619Z,2.83
2019-04-22T13:26:15.117Z,2.53
2019-04-22T13:28:43.123Z,3.07
2019-04-22T13:31:11.751Z,2.37
2019-04-22T13:33:40.913Z,1.73
2019-04-22T13:36:09.993Z,2.70
2019-04-22T13:38:38.728Z,2.50
2019-04-22T13:41:19.474Z,2.33
2019-04-22T13:43:36.630Z,2.17
2019-04-22T13:46:05.613Z,2.30
2019-04-22T13:48:59.091Z,1.83
2019-04-22T13:51:36.372Z,2.00
2019-04-22T13:54:30.157Z,2.10
2019-04-22T13:56:25.317Z,2.50
2019-04-22T13:58:44.810Z,2.20
2019-04-22T14:01:06.826Z,2.80
2019-04-22T14:03:54.424Z,2.20
2019-04-22T14:06:22.659Z,2.60
2019-04-22T14:08:51.494Z,2.50
2019-04-22T14:11:28.691Z,2.57
2019-04-22T14:13:50.235Z,2.53
2019-04-22T14:16:19.215Z,2.97
2019-04-22T14:18:47.762Z,2.00
2019-04-22T14:21:16.726Z,2.33
2019-04-22T14:23:44.814Z,2.43
2019-04-22T14:26:13.328Z,2.30
2019-04-22T14:28:41.669Z,2.60
2019-04-22T14:31:10.496Z,2.20
2019-04-22T14:33:38.406Z,2.70
2019-04-22T14:36:07.454Z,2.17
2019-04-22T14:38:36.638Z,2.40
2019-04-22T14:41:05.763Z,2.57
2019-04-22T14:43:59.947Z,2.10
2019-04-22T14:46:30.164Z,2.90
2019-04-22T14:49:10.122Z,2.73
2019-04-22T14:51:22.246Z,2.60
2019-04-22T14:53:52.269Z,2.50
2019-04-22T14:56:02.158Z,4.07
2019-04-22T14:58:31.042Z,4.63
2019-04-22T15:00:59.119Z,5.40
2019-04-22T15:03:27.831Z,5.40
2019-04-22T15:05:55.868Z,3.70
2019-04-22T15:08:24.785Z,2.60
2019-04-22T15:10:53.850Z,2.53
2019-04-22T15:13:23.235Z,2.97
2019-04-22T15:16:25.949Z,2.37
2019-04-22T15:19:02.038Z,2.93
2019-04-22T15:21:29.802Z,3.00
2019-04-22T15:24:02.414Z,2.97
2019-04-22T15:26:30.645Z,2.93
2019-04-22T15:28:59.639Z,2.90
2019-04-22T15:31:27.335Z,2.80
2019-04-22T15:33:56.426Z,3.30
2019-04-22T15:36:24.193Z,3.00
2019-04-22T15:38:53.347Z,3.27
2019-04-22T15:41:22.792Z,3.23
2019-04-22T15:43:51.948Z,3.07
2019-04-22T15:46:20.239Z,2.77
2019-04-22T15:48:48.460Z,3.00
2019-04-22T15:51:16.529Z,3.40
2019-04-22T15:53:45.369Z,3.40
2019-04-22T15:56:14.586Z,3.57
2019-04-22T15:58:43.491Z,3.00
2019-04-22T16:01:19.317Z,3.33
2019-04-22T16:03:40.712Z,3.50
2019-04-22T16:06:08.366Z,2.87
2019-04-22T16:08:38.734Z,3.17
2019-04-22T16:11:06.172Z,3.50
2019-04-22T16:13:37.695Z,3.53
2019-04-22T16:16:03.069Z,3.30
2019-04-22T16:18:32.478Z,3.00
2019-04-22T16:21:00.857Z,3.47
2019-04-22T16:23:50.432Z,3.00
2019-04-22T16:26:42.488Z,2.87
2019-04-22T16:29:11.623Z,3.10
2019-04-22T16:31:39.733Z,2.87
2019-04-22T16:34:09.329Z,2.70
2019-04-22T16:36:38.633Z,2.80
2019-04-22T16:39:08.981Z,3.10
2019-04-22T16:41:37.170Z,3.23
2019-04-22T16:44:06.925Z,3.67
2019-04-22T16:46:35.126Z,3.20
2019-04-22T16:49:03.429Z,3.13
2019-04-22T16:51:32.069Z,2.70
2019-04-22T16:54:00.088Z,3.00
2019-04-22T16:56:29.666Z,2.97
2019-04-22T16:58:57.307Z,3.67
2019-04-22T17:02:00.877Z,3.23
2019-04-22T17:05:02.645Z,3.17
2019-04-22T17:07:30.206Z,3.00
2019-04-22T17:09:58.017Z,3.60
2019-04-22T17:12:39.789Z,3.10
2019-04-22T17:15:00.522Z,3.23
2019-04-22T17:17:24.568Z,3.23
2019-04-22T17:19:53.272Z,3.80
2019-04-22T17:22:21.713Z,3.60
2019-04-22T17:24:49.940Z,3.53
2019-04-22T17:27:18.201Z,3.30
2019-04-22T17:29:46.324Z,3.13
2019-04-22T17:32:17.723Z,3.03
2019-04-22T17:34:45.476Z,3.43
2019-04-22T17:37:19.228Z,3.43
2019-04-22T17:39:50.838Z,3.47
2019-04-22T17:42:30.870Z,3.37
2019-04-22T17:45:22.013Z,2.93
2019-04-22T17:48:09.833Z,3.30
2019-04-22T17:50:44.439Z,3.40
2019-04-22T17:53:15.193Z,3.23
2019-04-22T17:55:44.484Z,3.17
2019-04-22T17:58:07.936Z,3.20
2019-04-22T18:00:32.439Z,3.43
2019-04-22T18:03:00.452Z,3.40
2019-04-22T18:05:24.109Z,2.70
2019-04-22T18:08:09.995Z,3.33
2019-04-22T18:10:36.175Z,3.10
2019-04-22T18:13:14.333Z,3.50
2019-04-22T18:15:37.113Z,3.70
2019-04-22T18:18:12.967Z,3.33
2019-04-22T18:20:32.238Z,4.30
2019-04-22T18:22:54.293Z,3.50
2019-04-22T18:25:33.866Z,4.17
2019-04-22T18:28:13.790Z,3.73
2019-04-22T18:30:30.039Z,3.20
2019-04-22T18:33:08.671Z,2.90
2019-04-22T18:35:34.920Z,3.37
2019-04-22T18:38:11.328Z,4.90
2019-04-22T18:40:37.263Z,3.47
2019-04-22T18:43:18.781Z,3.30
2019-04-22T18:47:58.629Z,3.50
2019-04-22T18:50:49.863Z,3.43
2019-04-22T18:53:21.730Z,4.40
2019-04-22T18:55:44.382Z,3.90
2019-04-22T18:58:18.036Z,3.13
2019-04-22T19:00:34.344Z,4.07
2019-04-22T19:03:09.886Z,5.10
2019-04-22T19:05:49.425Z,4.70
2019-04-22T19:11:00.599Z,5.20
2019-04-22T19:16:09.693Z,4.97
2019-04-22T19:18:29.723Z,6.80
2019-04-22T19:20:59.592Z,6.17
2019-04-22T19:23:22.700Z,5.47
2019-04-22T19:25:48.491Z,5.30
2019-04-22T19:28:23.884Z,5.07
2019-04-22T19:30:54.922Z,5.80
2019-04-22T19:33:18.946Z,4.60
2019-04-22T19:35:43.581Z,4.53
2019-04-22T19:38:11.679Z,4.47
2019-04-22T19:40:55.553Z,4.93
2019-04-22T19:43:25.763Z,4.10
2019-04-22T19:45:48.894Z,3.80
2019-04-22T19:48:27.076Z,3.70
2019-04-22T19:50:54.451Z,3.60
2019-04-22T19:53:19.467Z,4.23
2019-04-22T19:55:48.144Z,4.00
2019-04-22T19:58:17.714Z,3.70
2019-04-22T20:00:54.899Z,3.30
2019-04-22T20:03:56.307Z,3.43
2019-04-22T20:06:33.564Z,3.07
2019-04-22T20:09:05.737Z,3.30
2019-04-22T20:11:34.088Z,6.10
2019-04-22T20:14:06.396Z,5.27
2019-04-22T20:16:27.243Z,4.40
2019-04-22T20:19:06.243Z,3.10
2019-04-22T20:21:28.610Z,3.23
2019-04-22T20:23:53.066Z,3.27
2019-04-22T20:26:23.478Z,3.13
2019-04-22T20:28:57.662Z,2.90
2019-04-22T20:31:28.947Z,2.40
2019-04-22T20:34:03.470Z,4.73
2019-04-22T20:36:52.235Z,3.90
2019-04-22T20:38:56.477Z,3.13
2019-04-22T20:41:24.927Z,2.77
2019-04-22T20:44:04.607Z,3.10
2019-04-22T20:46:31.530Z,2.80
2019-04-22T20:49:00.519Z,3.40
2019-04-22T20:51:35.767Z,3.13
2019-04-22T20:54:02.240Z,3.10
2019-04-22T20:56:25.163Z,3.00
2019-04-22T20:58:56.249Z,2.83
2019-04-22T21:01:28.343Z,3.20
2019-04-22T21:03:44.094Z,2.90
2019-04-22T21:06:22.769Z,2.60
2019-04-22T21:09:02.266Z,2.77
2019-04-22T21:11:27.868Z,3.30
2019-04-22T21:13:55.999Z,3.37
2019-04-22T21:16:27.007Z,3.30
2019-04-22T21:18:51.576Z,3.00
2019-04-22T21:21:29.688Z,2.60
2019-04-22T21:23:48.672Z,2.77
2019-04-22T21:26:25.453Z,2.80
2019-04-22T21:28:53.794Z,2.77
2019-04-22T21:31:29.541Z,2.73
2019-04-22T21:33:51.888Z,2.87
2019-04-22T21:36:29.725Z,2.50
2019-04-22T21:38:53.105Z,2.60
2019-04-22T21:41:20.445Z,3.00
2019-04-22T21:43:52.683Z,3.20
2019-04-22T21:46:23.206Z,2.60
2019-04-22T21:51:31.649Z,2.90
2019-04-22T21:54:04.004Z,3.10
2019-04-22T21:56:40.833Z,2.50
2019-04-22T21:59:08.750Z,2.83
2019-04-22T22:01:49.739Z,2.57
2019-04-22T22:04:15.236Z,2.47
2019-04-22T22:06:32.927Z,2.90
2019-04-22T22:09:13.575Z,3.00
2019-04-22T22:11:37.191Z,2.70
2019-04-22T22:14:09.151Z,2.77
2019-04-22T22:16:31.915Z,2.57
2019-04-22T22:19:11.715Z,2.77
2019-04-22T22:21:49.631Z,3.07
2019-04-22T22:24:09.028Z,3.23
2019-04-22T22:26:40.702Z,2.87
2019-04-22T22:29:10.413Z,3.00
2019-04-22T22:31:43.264Z,3.27
2019-04-22T22:34:09.483Z,2.70
2019-04-22T22:36:29.545Z,2.77
2019-04-22T22:39:00.443Z,2.73
2019-04-22T22:41:14.004Z,2.73
2019-04-22T22:43:46.704Z,3.07
2019-04-22T22:46:24.689Z,2.40
2019-04-22T22:49:05.018Z,3.03
2019-04-22T22:51:39.886Z,2.90
2019-04-22T22:54:05.581Z,2.77
2019-04-22T22:56:36.843Z,3.03
2019-04-22T22:59:00.006Z,3.00
2019-04-22T23:01:34.940Z,3.50
2019-04-22T23:03:58.903Z,3.00
2019-04-22T23:06:32.782Z,2.90
2019-04-22T23:08:57.229Z,2.60
2019-04-22T23:11:46.309Z,2.90
2019-04-22T23:13:56.565Z,3.80
2019-04-22T23:16:20.985Z,3.17
2019-04-22T23:18:55.161Z,2.47
2019-04-22T23:21:31.299Z,2.63
2019-04-22T23:24:14.669Z,2.97
2019-04-22T23:26:43.857Z,3.60
2019-04-22T23:29:24.975Z,3.77
2019-04-22T23:31:52.189Z,3.40
2019-04-22T23:34:26.554Z,2.97
2019-04-22T23:37:08.517Z,3.17
2019-04-22T23:39:52.244Z,3.27
2019-04-22T23:42:19.459Z,2.73
2019-04-22T23:44:42.300Z,2.40
2019-04-22T23:47:16.066Z,2.80
2019-04-22T23:49:53.716Z,3.20
2019-04-22T23:52:25.589Z,2.80
2019-04-22T23:55:02.222Z,3.30
2019-04-22T23:57:37.137Z,3.07
